Time,TemperatureF,DewpointF,PressureIn,WindDirection,WindDirectionDegrees,WindSpeedMPH,WindSpeedGustMPH,Humidity,HourlyPrecipIn,Conditions,Clouds,dailyrainin,SoftwareType,DateUTC
2013-08-18 06:00:00,73.2,66.6,29.90,ENE,67,0.0,-999.0,80,-99.99,,,0.00,Acu-Link.com,2013-08-18 16:00:00,
2013-08-18 06:16:00,73.2,66.6,29.88,NE,45,0.0,-999.0,80,-99.99,,,0.00,Acu-Link.com,2013-08-18 16:16:00,
2013-08-18 06:31:00,73.0,66.5,29.88,SSW,202,1.1,-999.0,80,-99.99,,,0.00,Acu-Link.com,2013-08-18 16:31:00,
2013-08-18 06:46:00,73.2,66.3,29.87,ENE,67,0.0,-999.0,79,-99.99,,,0.00,Acu-Link.com,2013-08-18 16:46:00,
2013-08-18 07:01:00,73.2,66.6,29.88,NE,45,0.0,-999.0,80,-99.99,,,0.00,Acu-Link.com,2013-08-18 17:01:00,
2013-08-18 07:17:00,73.0,66.8,29.88,NNE,22,0.0,-999.0,81,-99.99,,,0.00,Acu-Link.com,2013-08-18 17:17:00,
2013-08-18 07:32:00,73.0,67.2,29.89,North,0,1.7,-999.0,82,-99.99,,,0.00,Acu-Link.com,2013-08-18 17:32:00,
2013-08-18 07:47:00,73.4,67.6,29.89,SSW,202,0.0,-999.0,82,-99.99,,,0.00,Acu-Link.com,2013-08-18 17:47:00,
2013-08-18 08:03:00,74.3,67.7,29.89,WNW,292,1.1,-999.0,80,-99.99,,,0.00,Acu-Link.com,2013-08-18 18:03:00,
2013-08-18 08:18:00,75.6,68.2,29.91,NNE,22,0.0,-999.0,78,-99.99,,,0.00,Acu-Link.com,2013-08-18 18:18:00,
2013-08-18 08:33:00,76.6,68.8,29.89,West,270,0.0,-999.0,77,-99.99,,,0.00,Acu-Link.com,2013-08-18 18:33:00,
2013-08-18 14:50:00,90.7,71.2,29.84,NNE,22,2.2,-999.0,53,-99.99,,,0.00,Acu-Link.com,2013-08-19 00:50:00,
2013-08-18 15:05:00,90.0,71.1,29.81,NNE,22,2.7,-999.0,54,-99.99,,,0.00,Acu-Link.com,2013-08-19 01:05:00,
2013-08-18 15:20:00,89.6,71.3,29.83,NNE,22,3.7,-999.0,55,-99.99,,,0.00,Acu-Link.com,2013-08-19 01:20:00,
2013-08-18 15:35:00,85.6,70.6,29.83,NNW,337,2.2,-999.0,61,-99.99,,,0.00,Acu-Link.com,2013-08-19 01:35:00,
2013-08-18 15:50:00,87.4,71.3,29.82,SW,225,2.2,-999.0,59,-99.99,,,0.00,Acu-Link.com,2013-08-19 01:50:00,
2013-08-18 16:06:00,85.8,70.3,29.81,NNE,22,2.7,-999.0,60,-99.99,,,0.00,Acu-Link.com,2013-08-19 02:06:00,
2013-08-18 16:21:00,85.3,70.8,29.82,West,270,2.7,-999.0,62,-99.99,,,0.00,Acu-Link.com,2013-08-19 02:21:00,
2013-08-18 16:36:00,83.7,69.7,29.82,NNW,337,2.2,-999.0,63,-99.99,,,0.00,Acu-Link.com,2013-08-19 02:36:00,
2013-08-18 16:53:00,84.2,69.7,29.83,NE,45,2.7,-999.0,62,-99.99,,,0.00,Acu-Link.com,2013-08-19 02:53:00,
2013-08-18 17:08:00,83.1,70.5,29.83,NNE,22,1.1,-999.0,66,-99.99,,,0.00,Acu-Link.com,2013-08-19 03:08:00,
2013-08-18 17:23:00,83.3,70.3,29.80,SSE,157,0.0,-999.0,65,-99.99,,,0.00,Acu-Link.com,2013-08-19 03:23:00,
2013-08-18 17:38:00,82.2,70.1,29.81,West,270,0.0,-999.0,67,-99.99,,,0.00,Acu-Link.com,2013-08-19 03:38:00,
2013-08-18 17:53:00,80.8,68.8,29.82,NNE,22,4.7,-999.0,67,-99.99,,,0.00,Acu-Link.com,2013-08-19 03:53:00,
2013-08-18 18:09:00,79.9,68.8,29.84,NNE,22,1.7,-999.0,69,-99.99,,,0.00,Acu-Link.com,2013-08-19 04:09:00,
2013-08-18 18:24:00,79.5,69.7,29.82,NNE,22,1.7,-999.0,72,-99.99,,,0.00,Acu-Link.com,2013-08-19 04:24:00,
2013-08-18 18:40:00,79.0,68.4,29.83,NNE,22,0.0,-999.0,70,-99.99,,,0.00,Acu-Link.com,2013-08-19 04:40:00,
2013-08-18 18:55:00,78.4,67.8,29.83,NNE,22,0.0,-999.0,70,-99.99,,,0.00,Acu-Link.com,2013-08-19 04:55:00,
2013-08-18 19:10:00,77.7,67.1,29.84,North,0,0.0,-999.0,70,-99.99,,,0.00,Acu-Link.com,2013-08-19 05:10:00,
2013-08-18 19:26:00,77.5,67.3,29.84,North,0,0.0,-999.0,71,-99.99,,,0.00,Acu-Link.com,2013-08-19 05:26:00,
2013-08-18 19:41:00,77.0,67.7,29.85,NNE,22,0.0,-999.0,73,-99.99,,,0.00,Acu-Link.com,2013-08-19 05:41:00,
2013-08-18 19:56:00,76.8,68.3,29.86,ENE,67,0.0,-999.0,75,-99.99,,,0.00,Acu-Link.com,2013-08-19 05:56:00,
2013-08-18 20:11:00,76.5,68.4,29.86,NNE,22,0.0,-999.0,76,-99.99,,,0.00,Acu-Link.com,2013-08-19 06:11:00,
2013-08-18 20:27:00,76.3,68.2,29.86,NE,45,0.0,-999.0,76,-99.99,,,0.00,Acu-Link.com,2013-08-19 06:27:00,
2013-08-18 20:42:00,76.3,68.5,29.87,NNE,22,1.7,-999.0,77,-99.99,,,0.00,Acu-Link.com,2013-08-19 06:42:00,
2013-08-18 20:57:00,76.1,68.4,29.88,NNE,22,0.0,-999.0,77,-99.99,,,0.00,Acu-Link.com,2013-08-19 06:57:00,
2013-08-18 21:12:00,75.9,68.2,29.88,WNW,292,0.0,-999.0,77,-99.99,,,0.00,Acu-Link.com,2013-08-19 07:12:00,
2013-08-18 21:28:00,75.7,68.0,29.89,North,0,0.0,-999.0,77,-99.99,,,0.00,Acu-Link.com,2013-08-19 07:28:00,
2013-08-18 21:43:00,75.7,68.0,29.90,NNE,22,0.0,-999.0,77,-99.99,,,0.00,Acu-Link.com,2013-08-19 07:43:00,
2013-08-18 21:58:00,75.7,68.3,29.91,South,180,2.7,-999.0,78,-99.99,,,0.00,Acu-Link.com,2013-08-19 07:58:00,
2013-08-18 22:14:00,75.9,68.5,29.91,NE,45,0.0,-999.0,78,-99.99,,,0.00,Acu-Link.com,2013-08-19 08:14:00,
2013-08-18 22:29:00,75.9,68.5,29.92,NNE,22,0.0,-999.0,78,-99.99,,,0.00,Acu-Link.com,2013-08-19 08:29:00,
2013-08-18 22:44:00,75.6,68.6,29.92,SW,225,0.0,-999.0,79,-99.99,,,0.00,Acu-Link.com,2013-08-19 08:44:00,